Time;durP1;ratioP1;P1;durP2;ratioP2;P2;SDS_P1;SDS_P2;PMS_P1;PMS_P2;Temp;Humidity;BMP_temperature;BMP_pressure;BME280_temperature;BME280_humidity;BME280_pressure;Samples;Min_cycle;Max_cycle;Signal;HPM_P1;HPM_P2
2022/04/01 00:00:47;;;;;;;;;;;21.70;35.20;;;;;;466065;256;2130;-39
2022/04/01 00:02:48;;;;;;;;;;;21.70;35.30;;;;;;465725;256;1279;-39
2022/04/01 00:04:50;;;;;;;;;;;21.70;35.20;;;;;;466138;256;1032;-39
2022/04/01 00:06:51;;;;;;;;;;;21.70;35.20;;;;;;466099;256;1337;-39
2022/04/01 00:08:52;;;;;;;;;;;21.70;35.20;;;;;;465804;256;1090;-39
2022/04/01 00:10:53;;;;;;;;;;;21.70;35.30;;;;;;466081;256;1210;-39
2022/04/01 00:12:55;;;;;;;;;;;21.60;35.30;;;;;;465858;256;1091;-39
2022/04/01 00:14:57;;;;;;;;;;;21.60;35.30;;;;;;466138;256;1051;-39
2022/04/01 00:16:58;;;;;;;;;;;21.60;35.30;;;;;;465880;256;1383;-39
2022/04/01 00:18:59;;;;;;;;;;;21.60;35.30;;;;;;466141;256;1063;-39
2022/04/01 00:21:01;;;;;;;;;;;21.70;35.30;;;;;;466053;256;2127;-39
2022/04/01 00:23:02;;;;;;;;;;;21.70;35.30;;;;;;466070;256;993;-39
2022/04/01 00:25:03;;;;;;;;;;;21.70;35.30;;;;;;466125;256;1085;-39
2022/04/01 00:27:04;;;;;;;;;;;21.70;35.30;;;;;;465665;256;1067;-39
2022/04/01 00:29:15;;;;;;;;;;;21.70;35.30;;;;;;466011;256;1269;-39
2022/04/01 00:31:09;;;;;;;;;;;21.70;35.30;;;;;;465417;255;2237;-39
2022/04/01 00:33:08;;;;;;;;;;;21.70;35.20;;;;;;465561;256;2221;-39
2022/04/01 00:35:10;;;;;;;;;;;21.70;35.20;;;;;;466070;256;1112;-39
2022/04/01 00:37:11;;;;;;;;;;;21.70;35.20;;;;;;465801;256;1209;-39
2022/04/01 00:39:13;;;;;;;;;;;21.70;35.20;;;;;;466108;256;1041;-39
2022/04/01 00:41:14;;;;;;;;;;;21.70;35.20;;;;;;466001;256;2193;-39
2022/04/01 00:43:15;;;;;;;;;;;21.70;35.30;;;;;;465799;256;1239;-39
2022/04/01 00:45:17;;;;;;;;;;;21.70;35.30;;;;;;466124;256;1078;-39
2022/04/01 00:47:18;;;;;;;;;;;21.70;35.30;;;;;;465911;256;1158;-39
2022/04/01 00:49:19;;;;;;;;;;;21.70;35.40;;;;;;466094;256;1089;-39
2022/04/01 00:51:21;;;;;;;;;;;21.80;35.30;;;;;;465803;256;1106;-39
2022/04/01 00:53:22;;;;;;;;;;;21.70;35.30;;;;;;465613;256;1093;-39
2022/04/01 00:55:23;;;;;;;;;;;21.70;35.30;;;;;;465980;256;1100;-39
2022/04/01 00:57:25;;;;;;;;;;;21.70;35.30;;;;;;466051;256;1088;-39
2022/04/01 00:59:28;;;;;;;;;;;21.70;35.40;;;;;;466094;256;2138;-39
2022/04/01 01:01:30;;;;;;;;;;;21.70;35.30;;;;;;465641;256;1282;-39
2022/04/01 01:03:30;;;;;;;;;;;21.70;35.20;;;;;;465749;255;2438;-39
2022/04/01 01:05:32;;;;;;;;;;;21.60;35.30;;;;;;466088;256;1047;-39
2022/04/01 01:07:33;;;;;;;;;;;21.70;35.40;;;;;;465806;256;1144;-39
2022/04/01 01:09:34;;;;;;;;;;;21.70;35.30;;;;;;466081;256;1079;-39
2022/04/01 01:11:36;;;;;;;;;;;21.70;35.30;;;;;;466076;256;1223;-39
2022/04/01 01:13:37;;;;;;;;;;;21.70;35.30;;;;;;466107;256;1057;-39
2022/04/01 01:15:38;;;;;;;;;;;21.70;35.30;;;;;;465677;256;1278;-39
2022/04/01 01:17:40;;;;;;;;;;;21.70;35.30;;;;;;465932;256;1197;-39
2022/04/01 01:19:41;;;;;;;;;;;21.70;35.30;;;;;;466112;256;2190;-39
2022/04/01 01:21:42;;;;;;;;;;;21.70;35.30;;;;;;466042;256;1092;-39
2022/04/01 01:23:44;;;;;;;;;;;21.70;35.40;;;;;;466139;256;1055;-39
2022/04/01 01:25:45;;;;;;;;;;;21.70;35.40;;;;;;466019;256;1461;-39
2022/04/01 01:27:47;;;;;;;;;;;21.70;35.40;;;;;;466057;256;1098;-39
2022/04/01 01:29:48;;;;;;;;;;;21.70;35.40;;;;;;465726;256;1112;-39
2022/04/01 01:31:49;;;;;;;;;;;21.70;35.30;;;;;;465659;256;1342;-39
2022/04/01 01:33:51;;;;;;;;;;;21.70;35.30;;;;;;465800;256;1216;-39
2022/04/01 01:35:52;;;;;;;;;;;21.70;35.30;;;;;;466083;256;1137;-39
2022/04/01 01:37:53;;;;;;;;;;;21.70;35.40;;;;;;465684;256;1130;-39
2022/04/01 01:39:55;;;;;;;;;;;21.70;35.40;;;;;;466095;256;2139;-39
2022/04/01 01:41:56;;;;;;;;;;;21.70;35.40;;;;;;465819;256;1410;-39
2022/04/01 01:43:59;;;;;;;;;;;21.70;35.30;;;;;;465679;256;1050;-39
2022/04/01 01:45:59;;;;;;;;;;;21.60;35.30;;;;;;466054;255;1431;-39
2022/04/01 01:48:00;;;;;;;;;;;21.60;35.40;;;;;;465901;256;1203;-39
2022/04/01 01:54:43;;;;;;;;;;;21.60;35.40;;;;;;465829;256;1100;-39
2022/04/01 01:56:44;;;;;;;;;;;21.60;35.40;;;;;;466025;256;1220;-39
2022/04/01 01:58:45;;;;;;;;;;;21.70;35.40;;;;;;466015;256;1070;-39
2022/04/01 02:00:47;;;;;;;;;;;21.70;35.40;;;;;;466105;256;2131;-39
2022/04/01 02:02:48;;;;;;;;;;;21.70;35.40;;;;;;465645;256;1119;-39
2022/04/01 02:04:49;;;;;;;;;;;21.70;35.40;;;;;;466108;256;1061;-39
2022/04/01 02:06:51;;;;;;;;;;;21.60;35.40;;;;;;466027;256;1334;-39
2022/04/01 02:08:54;;;;;;;;;;;21.60;35.40;;;;;;466118;256;1055;-39
2022/04/01 02:10:53;;;;;;;;;;;21.70;35.40;;;;;;465845;256;2093;-39
2022/04/01 02:12:55;;;;;;;;;;;21.70;35.40;;;;;;466070;256;1062;-39
2022/04/01 02:14:56;;;;;;;;;;;21.70;35.30;;;;;;466121;256;1072;-39
2022/04/01 02:16:57;;;;;;;;;;;21.70;35.30;;;;;;465653;256;1519;-39
2022/04/01 02:18:59;;;;;;;;;;;21.70;35.30;;;;;;465856;256;1604;-39
2022/04/01 02:21:00;;;;;;;;;;;21.60;35.30;;;;;;466064;256;2135;-39
2022/04/01 02:23:03;;;;;;;;;;;21.70;35.30;;;;;;466115;256;1125;-39
2022/04/01 02:25:04;;;;;;;;;;;21.70;35.30;;;;;;465966;256;2020;-39
2022/04/01 02:27:04;;;;;;;;;;;21.70;35.30;;;;;;465604;256;2262;-39
2022/04/01 02:29:08;;;;;;;;;;;21.70;35.30;;;;;;466023;256;1344;-39
2022/04/01 02:31:07;;;;;;;;;;;21.70;35.30;;;;;;465912;252;2341;-39
2022/04/01 02:33:08;;;;;;;;;;;21.70;35.30;;;;;;466105;256;1302;-39
2022/04/01 02:35:10;;;;;;;;;;;21.70;35.40;;;;;;465702;256;1088;-39
2022/04/01 02:37:11;;;;;;;;;;;21.70;35.30;;;;;;465658;256;1353;-39
2022/04/01 02:39:12;;;;;;;;;;;21.70;35.30;;;;;;466087;256;1089;-39
2022/04/01 02:41:14;;;;;;;;;;;21.70;35.30;;;;;;466072;256;2162;-39
2022/04/01 02:43:15;;;;;;;;;;;21.60;35.30;;;;;;466101;256;1069;-39
2022/04/01 02:45:16;;;;;;;;;;;21.70;35.30;;;;;;465704;256;1081;-39
2022/04/01 02:47:18;;;;;;;;;;;21.70;35.30;;;;;;466073;256;1237;-39
2022/04/01 02:49:19;;;;;;;;;;;21.70;35.30;;;;;;465917;256;1205;-39
2022/04/01 02:51:21;;;;;;;;;;;21.70;35.30;;;;;;465638;256;1276;-39
2022/04/01 02:53:22;;;;;;;;;;;21.60;35.40;;;;;;466090;256;1076;-39
2022/04/01 02:55:23;;;;;;;;;;;21.70;35.30;;;;;;465965;256;1058;-39
2022/04/01 02:57:24;;;;;;;;;;;21.70;35.30;;;;;;466021;256;1231;-39
2022/04/01 02:59:26;;;;;;;;;;;21.60;35.30;;;;;;466111;256;1067;-39
2022/04/01 03:01:27;;;;;;;;;;;21.70;35.30;;;;;;466060;256;2210;-39
2022/04/01 03:03:29;;;;;;;;;;;21.70;35.30;;;;;;465686;256;974;-39
2022/04/01 03:05:32;;;;;;;;;;;21.70;35.30;;;;;;466112;256;1064;-39
2022/04/01 03:07:33;;;;;;;;;;;21.70;35.30;;;;;;466078;256;1187;-39
2022/04/01 03:09:34;;;;;;;;;;;21.70;35.30;;;;;;466111;256;993;-39
2022/04/01 03:11:36;;;;;;;;;;;21.70;35.30;;;;;;465738;256;1481;-39
2022/04/01 03:13:37;;;;;;;;;;;21.70;35.30;;;;;;465652;256;1084;-39
2022/04/01 03:15:39;;;;;;;;;;;21.70;35.40;;;;;;465675;256;1083;-39
2022/04/01 03:17:40;;;;;;;;;;;21.70;35.30;;;;;;466084;256;1197;-39
2022/04/01 03:19:41;;;;;;;;;;;21.70;35.30;;;;;;465933;256;1157;-39
2022/04/01 03:21:42;;;;;;;;;;;21.70;35.30;;;;;;465974;256;2138;-39
2022/04/01 03:23:44;;;;;;;;;;;21.70;35.40;;;;;;466027;256;1053;-39
2022/04/01 03:25:45;;;;;;;;;;;21.70;35.30;;;;;;465931;256;1669;-39
2022/04/01 03:27:47;;;;;;;;;;;21.70;35.30;;;;;;466076;256;1218;-39
2022/04/01 03:29:48;;;;;;;;;;;21.60;35.30;;;;;;466122;256;1080;-39
2022/04/01 03:31:51;;;;;;;;;;;21.70;35.30;;;;;;465922;256;1251;-39
2022/04/01 03:33:51;;;;;;;;;;;21.70;35.30;;;;;;465804;256;1530;-39
2022/04/01 03:35:52;;;;;;;;;;;21.70;35.20;;;;;;465698;256;1319;-39
2022/04/01 03:37:53;;;;;;;;;;;21.70;35.20;;;;;;465767;256;1339;-39
2022/04/01 03:39:55;;;;;;;;;;;21.70;35.30;;;;;;466070;256;1101;-39
2022/04/01 03:41:56;;;;;;;;;;;21.70;35.20;;;;;;465985;256;2138;-39
2022/04/01 03:44:00;;;;;;;;;;;21.70;35.20;;;;;;466090;256;1079;-39
2022/04/01 03:45:59;;;;;;;;;;;21.70;35.20;;;;;;465400;256;2223;-39
2022/04/01 03:48:00;;;;;;;;;;;21.70;35.30;;;;;;466060;256;1359;-39
2022/04/01 03:50:02;;;;;;;;;;;21.70;35.20;;;;;;465684;256;1183;-39
2022/04/01 03:52:03;;;;;;;;;;;21.70;35.20;;;;;;465569;256;1206;-39
2022/04/01 03:54:05;;;;;;;;;;;21.80;35.20;;;;;;466100;256;1053;-39
2022/04/01 03:56:06;;;;;;;;;;;21.70;35.10;;;;;;465945;256;2187;-39
2022/04/01 03:58:07;;;;;;;;;;;21.70;35.20;;;;;;466066;256;1016;-39
2022/04/01 04:00:12;;;;;;;;;;;21.80;35.20;;;;;;465689;256;1081;-39
2022/04/01 04:02:12;;;;;;;;;;;21.70;35.20;;;;;;465774;255;2194;-39
2022/04/01 04:04:13;;;;;;;;;;;21.70;35.10;;;;;;465656;255;2250;-39
2022/04/01 04:06:14;;;;;;;;;;;21.70;35.20;;;;;;465583;256;2166;-39
2022/04/01 04:08:15;;;;;;;;;;;21.70;35.20;;;;;;466057;256;1061;-39
2022/04/01 04:10:17;;;;;;;;;;;21.70;35.20;;;;;;465840;256;1072;-39
2022/04/01 04:12:18;;;;;;;;;;;21.70;35.20;;;;;;465528;256;2296;-39
2022/04/01 04:14:20;;;;;;;;;;;21.70;35.10;;;;;;465929;256;1062;-39
2022/04/01 04:16:20;;;;;;;;;;;21.70;35.10;;;;;;465544;256;2779;-39
2022/04/01 04:18:21;;;;;;;;;;;21.70;35.10;;;;;;466084;256;1062;-39
2022/04/01 04:20:23;;;;;;;;;;;21.70;35.20;;;;;;465928;256;1138;-39
2022/04/01 04:22:24;;;;;;;;;;;21.80;35.10;;;;;;465599;256;2110;-39
2022/04/01 04:24:25;;;;;;;;;;;21.70;35.10;;;;;;466067;255;1218;-39
2022/04/01 04:26:27;;;;;;;;;;;21.70;35.20;;;;;;465561;256;1214;-39
2022/04/01 04:28:28;;;;;;;;;;;21.70;35.20;;;;;;466042;256;1053;-39
2022/04/01 04:30:29;;;;;;;;;;;21.70;35.10;;;;;;465598;256;1196;-39
2022/04/01 04:32:31;;;;;;;;;;;21.70;35.10;;;;;;465571;256;1243;-39
2022/04/01 04:34:32;;;;;;;;;;;21.70;35.10;;;;;;466026;256;1064;-39
2022/04/01 04:36:33;;;;;;;;;;;21.80;35.10;;;;;;465551;256;1197;-39
2022/04/01 04:38:35;;;;;;;;;;;21.70;35.10;;;;;;465971;256;1129;-39
2022/04/01 04:40:36;;;;;;;;;;;21.80;35.10;;;;;;465816;256;1080;-39
2022/04/01 04:42:37;;;;;;;;;;;21.70;35.20;;;;;;465597;256;2209;-39
2022/04/01 04:44:39;;;;;;;;;;;21.70;35.10;;;;;;465533;256;1101;-39
2022/04/01 04:46:40;;;;;;;;;;;21.70;35.00;;;;;;465533;256;1330;-39
2022/04/01 04:48:41;;;;;;;;;;;21.80;35.10;;;;;;465703;256;1049;-39
2022/04/01 04:50:42;;;;;;;;;;;21.80;35.10;;;;;;465789;256;1213;-39
2022/04/01 04:52:44;;;;;;;;;;;21.70;35.10;;;;;;465808;256;1339;-39
2022/04/01 04:54:45;;;;;;;;;;;21.70;35.10;;;;;;465442;256;1092;-39
2022/04/01 04:56:46;;;;;;;;;;;21.70;35.10;;;;;;465392;256;1369;-39
2022/04/01 04:58:48;;;;;;;;;;;21.70;35.10;;;;;;465583;256;1256;-39
2022/04/01 05:00:49;;;;;;;;;;;21.70;35.20;;;;;;465411;256;2143;-39
2022/04/01 05:02:50;;;;;;;;;;;21.70;35.20;;;;;;465633;256;1040;-39
2022/04/01 05:04:52;;;;;;;;;;;21.70;35.10;;;;;;465805;256;1095;-39
2022/04/01 05:06:53;;;;;;;;;;;21.70;35.10;;;;;;465382;256;1202;-39
2022/04/01 05:08:54;;;;;;;;;;;21.70;35.20;;;;;;465897;256;1096;-39
2022/04/01 05:10:56;;;;;;;;;;;21.70;35.10;;;;;;465603;256;1299;-39
2022/04/01 05:12:57;;;;;;;;;;;21.70;35.20;;;;;;465581;256;1121;-39
2022/04/01 05:14:58;;;;;;;;;;;21.70;35.10;;;;;;465821;256;1120;-39
2022/04/01 05:17:00;;;;;;;;;;;21.70;35.10;;;;;;465628;256;1081;-39
2022/04/01 05:19:01;;;;;;;;;;;21.70;35.10;;;;;;465638;256;1089;-39
2022/04/01 05:21:02;;;;;;;;;;;21.70;35.10;;;;;;465580;256;2170;-39
2022/04/01 05:23:06;;;;;;;;;;;21.70;35.10;;;;;;465393;256;1256;-39
2022/04/01 05:25:05;;;;;;;;;;;21.70;35.10;;;;;;465281;256;2348;-39
2022/04/01 05:27:07;;;;;;;;;;;21.70;35.10;;;;;;465592;256;1225;-39
2022/04/01 05:29:08;;;;;;;;;;;21.70;35.10;;;;;;465334;256;1093;-39
2022/04/01 05:31:10;;;;;;;;;;;21.70;35.10;;;;;;465431;256;1119;-39
2022/04/01 05:33:11;;;;;;;;;;;21.70;35.10;;;;;;465314;256;1237;-39
2022/04/01 05:35:12;;;;;;;;;;;21.70;35.00;;;;;;465732;256;1179;-39
2022/04/01 05:37:14;;;;;;;;;;;21.70;35.10;;;;;;465388;256;1579;-39
2022/04/01 05:39:15;;;;;;;;;;;21.70;35.10;;;;;;465529;256;1105;-39
2022/04/01 05:41:19;;;;;;;;;;;21.80;35.10;;;;;;465322;256;2186;-39
2022/04/01 05:43:18;;;;;;;;;;;21.80;35.00;;;;;;465217;256;2261;-39
2022/04/01 05:45:19;;;;;;;;;;;21.80;35.10;;;;;;465436;256;1104;-39
2022/04/01 05:47:20;;;;;;;;;;;21.80;35.10;;;;;;465619;256;1147;-39
2022/04/01 05:49:22;;;;;;;;;;;21.70;35.10;;;;;;465600;256;1094;-39
2022/04/01 05:51:24;;;;;;;;;;;21.80;35.10;;;;;;465653;256;1094;-39
2022/04/01 05:53:25;;;;;;;;;;;21.80;35.10;;;;;;465288;256;2269;-39
2022/04/01 05:55:26;;;;;;;;;;;21.70;35.00;;;;;;465638;256;1062;-39
2022/04/01 05:57:27;;;;;;;;;;;21.80;35.10;;;;;;465307;256;1258;-39
2022/04/01 05:59:29;;;;;;;;;;;21.80;35.00;;;;;;465456;256;1046;-39
2022/04/01 06:01:30;;;;;;;;;;;21.80;35.10;;;;;;465229;256;2213;-39
2022/04/01 06:03:31;;;;;;;;;;;21.80;35.10;;;;;;465286;256;1110;-39
2022/04/01 06:05:32;;;;;;;;;;;21.80;35.10;;;;;;465209;256;1248;-39
2022/04/01 06:07:34;;;;;;;;;;;21.80;35.00;;;;;;465259;256;1278;-39
2022/04/01 06:09:35;;;;;;;;;;;21.80;35.00;;;;;;465447;256;1031;-39
2022/04/01 06:11:37;;;;;;;;;;;21.80;35.10;;;;;;465284;256;1187;-39
2022/04/01 06:13:38;;;;;;;;;;;21.80;35.00;;;;;;465628;256;997;-39
2022/04/01 06:15:40;;;;;;;;;;;21.80;34.90;;;;;;465339;256;1221;-39
2022/04/01 06:17:41;;;;;;;;;;;21.80;35.00;;;;;;465238;256;1234;-39
2022/04/01 06:19:42;;;;;;;;;;;21.80;35.00;;;;;;465535;256;1147;-39
2022/04/01 06:21:44;;;;;;;;;;;21.80;35.00;;;;;;465147;256;2202;-39
2022/04/01 06:23:45;;;;;;;;;;;21.80;35.00;;;;;;465534;256;1031;-39
2022/04/01 06:25:46;;;;;;;;;;;21.80;35.00;;;;;;465346;256;1238;-39
2022/04/01 06:27:47;;;;;;;;;;;21.70;35.10;;;;;;465180;256;1545;-39
2022/04/01 06:29:49;;;;;;;;;;;21.80;35.00;;;;;;465115;256;1157;-39
2022/04/01 06:31:50;;;;;;;;;;;21.70;35.00;;;;;;465243;256;1276;-39
2022/04/01 06:33:51;;;;;;;;;;;21.80;35.00;;;;;;465257;256;1074;-39
2022/04/01 06:35:53;;;;;;;;;;;21.80;35.00;;;;;;465583;256;1375;-39
2022/04/01 06:37:55;;;;;;;;;;;21.80;35.00;;;;;;465220;256;1210;-39
2022/04/01 06:39:56;;;;;;;;;;;21.70;35.00;;;;;;465217;256;2069;-39
2022/04/01 06:41:58;;;;;;;;;;;21.80;35.00;;;;;;465103;256;2150;-39
2022/04/01 06:43:59;;;;;;;;;;;21.80;34.90;;;;;;465179;256;1196;-39
2022/04/01 06:46:00;;;;;;;;;;;21.80;35.00;;;;;;465311;256;1348;-39
2022/04/01 06:48:02;;;;;;;;;;;21.80;34.90;;;;;;465254;256;1122;-39
2022/04/01 06:50:03;;;;;;;;;;;21.80;34.90;;;;;;465372;256;1069;-39
2022/04/01 06:52:04;;;;;;;;;;;21.80;34.90;;;;;;465199;256;1186;-39
2022/04/01 06:54:05;;;;;;;;;;;21.70;34.90;;;;;;465041;256;1103;-39
2022/04/01 06:56:08;;;;;;;;;;;21.80;34.90;;;;;;465120;256;1531;-39
2022/04/01 06:58:11;;;;;;;;;;;21.80;34.80;;;;;;465048;256;2125;-39
2022/04/01 07:00:12;;;;;;;;;;;21.80;34.80;;;;;;465031;256;2380;-39
2022/04/01 07:02:12;;;;;;;;;;;21.70;34.90;;;;;;465002;255;2206;-39
2022/04/01 07:04:14;;;;;;;;;;;21.70;34.80;;;;;;465015;256;1101;-39
2022/04/01 07:06:15;;;;;;;;;;;21.80;34.90;;;;;;464911;256;2129;-39
2022/04/01 07:08:16;;;;;;;;;;;21.70;34.80;;;;;;464901;256;2260;-39
2022/04/01 07:10:17;;;;;;;;;;;21.70;34.80;;;;;;464955;256;1192;-39
2022/04/01 07:12:18;;;;;;;;;;;21.80;34.80;;;;;;464863;256;1343;-39
2022/04/01 07:14:20;;;;;;;;;;;21.80;34.80;;;;;;465005;256;1147;-39
2022/04/01 07:16:21;;;;;;;;;;;21.70;34.70;;;;;;464849;256;1474;-39
2022/04/01 07:18:22;;;;;;;;;;;21.70;34.70;;;;;;465113;256;1181;-39
2022/04/01 07:20:24;;;;;;;;;;;21.80;34.70;;;;;;464828;256;1243;-39
2022/04/01 07:22:25;;;;;;;;;;;21.80;34.70;;;;;;464898;252;2111;-39
2022/04/01 07:24:27;;;;;;;;;;;21.80;34.70;;;;;;465088;256;1103;-39
2022/04/01 07:26:28;;;;;;;;;;;21.80;34.70;;;;;;465182;256;1187;-39
2022/04/01 07:28:29;;;;;;;;;;;21.80;34.60;;;;;;465393;256;1127;-39
2022/04/01 07:30:30;;;;;;;;;;;21.80;34.60;;;;;;464993;256;1154;-39
2022/04/01 07:32:32;;;;;;;;;;;21.70;34.60;;;;;;464871;256;1390;-39
2022/04/01 07:34:33;;;;;;;;;;;21.70;34.60;;;;;;464874;256;1181;-39
2022/04/01 07:36:35;;;;;;;;;;;21.70;34.60;;;;;;464833;256;1100;-39
2022/04/01 07:38:38;;;;;;;;;;;21.80;34.60;;;;;;465086;256;1165;-39
2022/04/01 07:40:37;;;;;;;;;;;21.80;34.50;;;;;;464869;255;2174;-39
2022/04/01 07:42:39;;;;;;;;;;;21.80;34.60;;;;;;465265;256;2209;-39
2022/04/01 07:44:40;;;;;;;;;;;21.80;34.60;;;;;;464911;256;1185;-39
2022/04/01 07:46:42;;;;;;;;;;;21.70;34.50;;;;;;464756;256;1223;-39
2022/04/01 07:48:43;;;;;;;;;;;21.70;34.50;;;;;;465042;256;1132;-39
2022/04/01 07:50:44;;;;;;;;;;;21.80;34.50;;;;;;465001;256;1509;-39
2022/04/01 07:52:45;;;;;;;;;;;21.80;34.50;;;;;;464889;256;1206;-39
2022/04/01 07:54:47;;;;;;;;;;;21.80;34.50;;;;;;464771;256;1077;-39
2022/04/01 07:56:48;;;;;;;;;;;21.80;34.40;;;;;;464929;256;1268;-39
2022/04/01 07:58:49;;;;;;;;;;;21.80;34.50;;;;;;465448;256;1118;-39
2022/04/01 08:00:51;;;;;;;;;;;21.70;34.50;;;;;;465049;256;1297;-39
2022/04/01 08:02:52;;;;;;;;;;;21.80;34.40;;;;;;465005;256;2167;-39
2022/04/01 08:04:53;;;;;;;;;;;21.80;34.40;;;;;;465084;256;1333;-39
2022/04/01 08:06:55;;;;;;;;;;;21.70;34.40;;;;;;465023;256;1197;-39
2022/04/01 08:08:58;;;;;;;;;;;21.80;34.40;;;;;;465125;256;1317;-39
2022/04/01 08:10:57;;;;;;;;;;;21.80;34.40;;;;;;464893;256;2385;-39
2022/04/01 08:12:59;;;;;;;;;;;21.80;34.40;;;;;;465141;256;1278;-39
2022/04/01 08:15:00;;;;;;;;;;;21.80;34.40;;;;;;465031;256;1066;-39
2022/04/01 08:17:02;;;;;;;;;;;21.80;34.40;;;;;;464951;256;1294;-39
2022/04/01 08:19:03;;;;;;;;;;;21.70;34.30;;;;;;464959;256;2444;-39
2022/04/01 08:21:05;;;;;;;;;;;21.70;34.30;;;;;;464755;256;1181;-39
2022/04/01 08:23:06;;;;;;;;;;;21.70;34.30;;;;;;464889;256;2151;-39
2022/04/01 08:25:07;;;;;;;;;;;21.70;34.40;;;;;;464972;256;1101;-39
2022/04/01 08:27:09;;;;;;;;;;;21.70;34.30;;;;;;464893;256;1447;-39
2022/04/01 08:29:10;;;;;;;;;;;21.70;34.20;;;;;;465141;256;1062;-39
2022/04/01 08:31:11;;;;;;;;;;;21.70;34.30;;;;;;465034;256;1345;-39
2022/04/01 08:33:17;;;;;;;;;;;21.70;34.30;;;;;;465038;256;1595;-39
2022/04/01 08:35:14;;;;;;;;;;;21.80;34.30;;;;;;464735;255;2129;-39
2022/04/01 08:37:15;;;;;;;;;;;21.70;34.20;;;;;;465152;256;1318;-39
2022/04/01 08:39:17;;;;;;;;;;;21.80;34.20;;;;;;465088;256;1276;-39
2022/04/01 08:41:18;;;;;;;;;;;21.80;34.20;;;;;;465064;256;1381;-39
2022/04/01 08:43:19;;;;;;;;;;;21.70;34.20;;;;;;465181;256;2123;-39
2022/04/01 08:45:21;;;;;;;;;;;21.70;34.20;;;;;;465094;256;1262;-39
2022/04/01 08:47:22;;;;;;;;;;;21.70;34.10;;;;;;465109;256;1243;-39
2022/04/01 08:49:23;;;;;;;;;;;21.80;34.20;;;;;;465027;256;1111;-39
2022/04/01 08:51:24;;;;;;;;;;;21.80;34.10;;;;;;464889;256;1181;-39
2022/04/01 08:53:26;;;;;;;;;;;21.80;34.10;;;;;;464925;256;1222;-39
2022/04/01 08:55:27;;;;;;;;;;;21.80;34.10;;;;;;464945;256;1195;-39
2022/04/01 08:57:29;;;;;;;;;;;21.80;34.10;;;;;;464932;256;1268;-39
2022/04/01 08:59:30;;;;;;;;;;;21.70;34.10;;;;;;465088;256;1165;-39
2022/04/01 09:01:31;;;;;;;;;;;21.70;34.10;;;;;;465173;256;1386;-39
2022/04/01 09:03:34;;;;;;;;;;;21.70;34.20;;;;;;464980;256;2194;-39
2022/04/01 09:05:34;;;;;;;;;;;21.70;34.10;;;;;;464939;256;1469;-39
2022/04/01 09:07:36;;;;;;;;;;;21.70;34.10;;;;;;464934;256;1268;-39
2022/04/01 09:09:37;;;;;;;;;;;21.70;34.10;;;;;;465033;256;1260;-39
2022/04/01 09:11:38;;;;;;;;;;;21.70;34.00;;;;;;464979;256;1343;-39
2022/04/01 09:13:40;;;;;;;;;;;21.80;34.00;;;;;;464998;256;1179;-39
2022/04/01 09:15:41;;;;;;;;;;;21.70;34.00;;;;;;465087;256;1173;-39
2022/04/01 09:17:42;;;;;;;;;;;21.70;34.10;;;;;;465062;256;1232;-39
2022/04/01 09:19:44;;;;;;;;;;;21.70;34.10;;;;;;465119;256;1117;-39
2022/04/01 09:21:47;;;;;;;;;;;21.70;34.10;;;;;;465061;256;1366;-39
2022/04/01 09:23:46;;;;;;;;;;;21.70;34.00;;;;;;464808;255;2197;-39
2022/04/01 09:25:48;;;;;;;;;;;21.70;34.00;;;;;;464939;256;1069;-39
2022/04/01 09:27:50;;;;;;;;;;;21.70;34.00;;;;;;465129;256;1243;-39
2022/04/01 09:29:51;;;;;;;;;;;21.80;34.00;;;;;;464900;256;2038;-39
2022/04/01 09:31:52;;;;;;;;;;;21.80;34.00;;;;;;464882;256;1393;-39
2022/04/01 09:33:54;;;;;;;;;;;21.70;34.00;;;;;;465057;256;1096;-39
2022/04/01 09:35:55;;;;;;;;;;;21.70;34.00;;;;;;465026;256;1329;-39
2022/04/01 09:37:57;;;;;;;;;;;21.70;34.00;;;;;;465467;256;1996;-39
2022/04/01 09:39:58;;;;;;;;;;;21.70;34.00;;;;;;465017;256;2420;-39
2022/04/01 09:42:00;;;;;;;;;;;21.70;34.00;;;;;;465036;256;1207;-39
2022/04/01 09:44:00;;;;;;;;;;;21.80;34.00;;;;;;465099;256;2277;-39
2022/04/01 09:46:02;;;;;;;;;;;21.70;33.90;;;;;;465051;256;1269;-39
2022/04/01 09:48:03;;;;;;;;;;;21.70;33.90;;;;;;465032;256;1356;-39
2022/04/01 09:50:05;;;;;;;;;;;21.70;33.90;;;;;;465019;256;1106;-39
2022/04/01 09:52:06;;;;;;;;;;;21.70;33.90;;;;;;465197;256;1486;-39
2022/04/01 09:54:07;;;;;;;;;;;21.70;33.90;;;;;;465054;256;1218;-39
2022/04/01 09:56:09;;;;;;;;;;;21.70;33.90;;;;;;464955;256;1352;-39
2022/04/01 09:58:09;;;;;;;;;;;21.70;33.80;;;;;;465041;256;1119;-39
2022/04/01 10:00:11;;;;;;;;;;;21.70;33.80;;;;;;464995;256;1084;-39
2022/04/01 10:02:12;;;;;;;;;;;21.80;33.80;;;;;;465049;256;1229;-39
2022/04/01 10:04:13;;;;;;;;;;;21.80;33.70;;;;;;464950;256;2198;-39
2022/04/01 10:06:15;;;;;;;;;;;21.80;33.80;;;;;;465050;256;1345;-39
2022/04/01 10:08:16;;;;;;;;;;;21.80;33.80;;;;;;465008;256;1094;-39
2022/04/01 10:10:17;;;;;;;;;;;21.80;33.80;;;;;;465053;256;1220;-39
2022/04/01 10:12:19;;;;;;;;;;;21.80;33.80;;;;;;465173;256;1241;-39
2022/04/01 10:14:20;;;;;;;;;;;21.80;33.80;;;;;;465210;256;1193;-39
2022/04/01 10:16:21;;;;;;;;;;;21.70;33.80;;;;;;465056;256;1382;-39
2022/04/01 10:18:23;;;;;;;;;;;21.70;33.70;;;;;;465107;256;1117;-39
2022/04/01 10:20:24;;;;;;;;;;;21.80;33.70;;;;;;465069;256;1345;-39
2022/04/01 10:22:25;;;;;;;;;;;21.70;33.70;;;;;;464999;256;1181;-39
2022/04/01 10:24:26;;;;;;;;;;;21.70;33.80;;;;;;464907;256;2142;-39
2022/04/01 10:26:28;;;;;;;;;;;21.70;33.80;;;;;;464914;256;1239;-39
2022/04/01 10:28:29;;;;;;;;;;;21.80;33.80;;;;;;465084;256;1226;-39
2022/04/01 10:30:31;;;;;;;;;;;21.80;33.70;;;;;;465063;256;1129;-39
2022/04/01 10:32:33;;;;;;;;;;;21.80;33.70;;;;;;464922;256;1163;-39
2022/04/01 10:34:34;;;;;;;;;;;21.70;33.70;;;;;;465040;256;1102;-39
2022/04/01 10:36:36;;;;;;;;;;;21.80;33.80;;;;;;464890;256;1361;-39
2022/04/01 10:38:37;;;;;;;;;;;21.80;33.70;;;;;;465077;256;1096;-39
2022/04/01 10:40:38;;;;;;;;;;;21.70;33.70;;;;;;465085;256;1177;-39
2022/04/01 10:42:39;;;;;;;;;;;21.70;33.70;;;;;;465344;256;1553;-39
2022/04/01 10:44:41;;;;;;;;;;;21.70;33.70;;;;;;465085;256;2143;-39
2022/04/01 10:46:45;;;;;;;;;;;21.80;33.70;;;;;;465061;256;1370;-39
2022/04/01 10:53:22;;;;;;;;;;;21.70;33.70;;;;;;465095;256;1216;-39
2022/04/01 10:55:23;;;;;;;;;;;21.70;33.70;;;;;;465064;256;1154;-39
2022/04/01 10:57:24;;;;;;;;;;;21.70;33.70;;;;;;465172;256;1346;-39
2022/04/01 10:59:26;;;;;;;;;;;21.70;33.70;;;;;;465255;256;1131;-39
2022/04/01 11:01:27;;;;;;;;;;;21.70;33.70;;;;;;465007;256;1152;-39
2022/04/01 11:03:29;;;;;;;;;;;21.70;33.60;;;;;;465253;256;2138;-39
2022/04/01 11:05:30;;;;;;;;;;;21.70;33.60;;;;;;464925;256;1147;-39
2022/04/01 11:07:33;;;;;;;;;;;21.80;33.60;;;;;;465045;256;1083;-39
2022/04/01 11:09:33;;;;;;;;;;;21.70;33.60;;;;;;464956;256;2263;-39
2022/04/01 11:11:35;;;;;;;;;;;21.80;33.60;;;;;;464997;256;1115;-39
2022/04/01 11:13:35;;;;;;;;;;;21.70;33.70;;;;;;465001;256;2232;-39
2022/04/01 11:15:37;;;;;;;;;;;21.80;33.60;;;;;;464932;256;1093;-39
2022/04/01 11:17:38;;;;;;;;;;;21.80;33.60;;;;;;464947;256;1213;-39
2022/04/01 11:19:39;;;;;;;;;;;21.80;33.60;;;;;;465029;256;1247;-39
2022/04/01 11:21:41;;;;;;;;;;;21.80;33.60;;;;;;464903;256;1176;-39
2022/04/01 11:23:42;;;;;;;;;;;21.70;33.60;;;;;;465008;256;2194;-39
2022/04/01 11:25:47;;;;;;;;;;;21.70;33.70;;;;;;465192;256;1587;-39
2022/04/01 11:27:45;;;;;;;;;;;21.70;33.70;;;;;;464906;255;1371;-39
2022/04/01 11:29:46;;;;;;;;;;;21.70;33.70;;;;;;465249;256;1379;-39
2022/04/01 11:31:47;;;;;;;;;;;21.70;33.60;;;;;;464999;256;1232;-39
2022/04/01 11:33:48;;;;;;;;;;;21.70;33.60;;;;;;465054;256;1106;-39
2022/04/01 11:35:50;;;;;;;;;;;21.80;33.60;;;;;;465013;256;1247;-39
2022/04/01 11:37:51;;;;;;;;;;;21.70;33.60;;;;;;465162;256;1095;-39
2022/04/01 11:39:52;;;;;;;;;;;21.70;33.50;;;;;;465246;256;1165;-39
2022/04/01 11:41:54;;;;;;;;;;;21.70;33.60;;;;;;465163;256;1193;-39
2022/04/01 11:43:55;;;;;;;;;;;21.70;33.60;;;;;;465257;256;2145;-39
2022/04/01 11:45:57;;;;;;;;;;;21.70;33.60;;;;;;465042;256;1249;-39
2022/04/01 11:47:59;;;;;;;;;;;21.70;33.60;;;;;;465145;256;1091;-39
2022/04/01 11:50:00;;;;;;;;;;;21.70;33.60;;;;;;465128;256;1062;-39
2022/04/01 11:52:01;;;;;;;;;;;21.60;33.60;;;;;;465000;256;1357;-39
2022/04/01 11:54:03;;;;;;;;;;;21.70;33.60;;;;;;465255;256;1227;-39
2022/04/01 11:56:04;;;;;;;;;;;21.70;33.60;;;;;;465171;256;1312;-39
2022/04/01 11:58:05;;;;;;;;;;;21.70;33.60;;;;;;465058;256;1148;-39
2022/04/01 12:00:06;;;;;;;;;;;21.70;33.60;;;;;;465028;256;1101;-39
2022/04/01 12:02:08;;;;;;;;;;;21.70;33.60;;;;;;464921;256;1106;-39
2022/04/01 12:04:09;;;;;;;;;;;21.70;33.50;;;;;;465169;256;2197;-39
2022/04/01 12:08:42;;;;;;;;;;;21.70;33.50;;;;;;465152;256;1064;-39